Time;durP1;ratioP1;P1;durP2;ratioP2;P2;SDS_P1;SDS_P2;PMS_P1;PMS_P2;Temp;Humidity;BMP_temperature;BMP_pressure;BME280_temperature;BME280_humidity;BME280_pressure;Samples;Min_cycle;Max_cycle;Signal;HPM_P1;HPM_P2
2022/07/12 00:01:52;;;;;;;0.75;0.55;;;17.80;90.70;;;;;;5081727;28;20017;-61
2022/07/12 00:04:18;;;;;;;0.80;0.40;;;17.80;90.80;;;;;;5052902;28;20512;-61
2022/07/12 00:06:44;;;;;;;0.63;0.50;;;17.70;90.90;;;;;;5058784;28;20028;-61
2022/07/12 00:09:09;;;;;;;0.63;0.45;;;17.70;91.00;;;;;;5060097;28;20451;-61
2022/07/12 00:11:35;;;;;;;0.77;0.40;;;17.60;91.10;;;;;;5059530;28;20114;-61
2022/07/12 00:14:02;;;;;;;1.10;0.30;;;17.60;91.30;;;;;;5072490;28;20024;-61
2022/07/12 00:16:27;;;;;;;1.13;0.60;;;17.60;91.40;;;;;;5053740;28;20032;-61
2022/07/12 00:18:53;;;;;;;0.75;0.50;;;17.60;91.40;;;;;;5053802;28;20128;-61
2022/07/12 00:21:19;;;;;;;0.90;0.50;;;17.50;91.50;;;;;;5067252;28;20017;-61
2022/07/12 00:23:45;;;;;;;1.17;0.65;;;17.50;91.60;;;;;;5054138;28;20031;-61
2022/07/12 00:26:10;;;;;;;0.40;0.35;;;17.40;91.70;;;;;;5053125;28;20602;-61
2022/07/12 00:28:36;;;;;;;1.80;0.45;;;17.40;91.80;;;;;;5054699;28;20480;-61
2022/07/12 00:31:03;;;;;;;1.45;0.40;;;17.40;91.80;;;;;;5053806;28;20135;-61
2022/07/12 00:33:28;;;;;;;0.88;0.47;;;17.30;91.90;;;;;;5055343;28;20057;-61
2022/07/12 00:35:54;;;;;;;0.80;0.50;;;17.30;92.00;;;;;;5065313;28;20436;-61
2022/07/12 00:38:20;;;;;;;0.70;0.45;;;17.20;92.10;;;;;;5054960;28;20098;-61
2022/07/12 00:40:45;;;;;;;0.95;0.50;;;17.20;92.20;;;;;;5053792;28;20035;-61
2022/07/12 00:43:11;;;;;;;2.35;0.47;;;17.10;92.20;;;;;;5060350;28;20096;-61
2022/07/12 00:45:37;;;;;;;1.05;0.40;;;17.10;92.30;;;;;;5071968;28;20039;-61
2022/07/12 00:48:03;;;;;;;1.42;0.38;;;17.10;92.30;;;;;;5072128;28;20021;-61
2022/07/12 00:50:29;;;;;;;0.95;0.60;;;17.00;92.40;;;;;;5053454;28;20017;-62
2022/07/12 00:52:55;;;;;;;1.17;0.60;;;17.00;92.50;;;;;;5052444;28;20377;-61
2022/07/12 00:55:22;;;;;;;1.50;0.40;;;17.00;92.60;;;;;;5067556;28;20108;-61
2022/07/12 00:57:48;;;;;;;0.60;0.40;;;16.90;92.60;;;;;;5064518;28;20076;-61
2022/07/12 01:00:20;;;;;;;0.43;0.30;;;16.90;92.70;;;;;;5071424;28;20082;-61
2022/07/12 01:02:47;;;;;;;0.65;0.22;;;16.90;92.80;;;;;;5070859;28;20029;-61
2022/07/12 01:05:13;;;;;;;0.60;0.30;;;16.80;92.90;;;;;;5070204;28;20476;-61
2022/07/12 01:07:39;;;;;;;0.40;0.30;;;16.70;93.00;;;;;;5069508;28;20036;-61
2022/07/12 01:10:06;;;;;;;0.40;0.38;;;16.70;93.20;;;;;;5059831;28;20020;-62
2022/07/12 01:12:32;;;;;;;0.82;0.40;;;16.60;93.20;;;;;;5069586;28;20024;-61
2022/07/12 01:14:58;;;;;;;0.60;0.47;;;16.60;93.30;;;;;;5072026;28;20025;-61
2022/07/12 01:17:26;;;;;;;1.00;0.40;;;16.60;93.40;;;;;;5069644;28;20510;-61
2022/07/12 01:19:54;;;;;;;1.17;0.40;;;16.60;93.50;;;;;;5071955;28;20385;-61
2022/07/12 01:22:24;;;;;;;0.73;0.45;;;16.60;93.50;;;;;;5069835;28;20024;-61
2022/07/12 01:24:50;;;;;;;1.45;0.65;;;16.60;93.60;;;;;;5070946;28;20427;-61
2022/07/12 01:27:16;;;;;;;1.10;0.60;;;16.60;93.70;;;;;;5069436;28;20500;-61
2022/07/12 01:29:42;;;;;;;0.70;0.40;;;16.50;93.70;;;;;;5070916;28;20070;-61
2022/07/12 01:32:26;;;;;;;1.25;0.80;;;16.50;93.80;;;;;;5069755;28;20407;-61
2022/07/12 01:34:56;;;;;;;0.85;0.50;;;16.50;93.80;;;;;;5073177;28;20550;-61
2022/07/12 01:37:24;;;;;;;0.93;0.50;;;16.50;93.90;;;;;;5074344;28;20115;-61
2022/07/12 01:39:54;;;;;;;1.40;0.60;;;16.50;94.00;;;;;;5072853;28;20086;-61
2022/07/12 01:42:21;;;;;;;1.58;0.60;;;16.40;94.10;;;;;;5074144;28;20099;-61
2022/07/12 01:44:49;;;;;;;0.73;0.52;;;16.40;94.20;;;;;;5068568;28;20067;-61
2022/07/12 01:47:14;;;;;;;1.10;0.70;;;16.40;94.20;;;;;;5067903;28;20048;-61
2022/07/12 01:49:40;;;;;;;1.20;0.50;;;16.40;94.20;;;;;;5074284;28;20068;-61
2022/07/12 01:52:06;;;;;;;0.50;0.40;;;16.40;94.30;;;;;;5074862;28;20024;-61
2022/07/12 01:54:33;;;;;;;0.80;0.40;;;16.40;94.30;;;;;;5062215;28;20547;-61
2022/07/12 01:56:58;;;;;;;0.85;0.47;;;16.40;94.40;;;;;;5074376;28;20377;-61
2022/07/12 01:59:24;;;;;;;0.70;0.50;;;16.30;94.50;;;;;;5062526;28;20546;-61
2022/07/12 02:01:49;;;;;;;1.02;0.63;;;16.30;94.50;;;;;;5055150;28;20129;-61
2022/07/12 02:04:16;;;;;;;1.00;0.60;;;16.30;94.60;;;;;;5054944;28;20053;-61
2022/07/12 02:06:46;;;;;;;1.40;0.68;;;16.30;94.70;;;;;;5069392;28;20111;-61
2022/07/12 02:09:12;;;;;;;2.08;0.57;;;16.30;94.80;;;;;;5065630;28;20024;-61
2022/07/12 02:11:38;;;;;;;1.10;0.50;;;16.30;94.80;;;;;;5062698;28;20515;-61
2022/07/12 02:14:03;;;;;;;0.90;0.60;;;16.20;94.80;;;;;;5059600;28;20021;-61
2022/07/12 02:16:29;;;;;;;0.95;0.52;;;16.20;94.90;;;;;;5062226;28;20033;-61
2022/07/12 02:18:55;;;;;;;1.05;0.60;;;16.20;95.00;;;;;;5075390;28;20021;-61
2022/07/12 02:21:20;;;;;;;0.68;0.50;;;16.20;95.00;;;;;;5061881;28;20028;-61
2022/07/12 02:23:46;;;;;;;0.57;0.40;;;16.10;95.10;;;;;;5068675;28;20021;-61
2022/07/12 02:26:11;;;;;;;1.58;0.60;;;16.10;95.10;;;;;;5072366;28;20024;-61
2022/07/12 02:28:37;;;;;;;0.52;0.40;;;16.00;95.20;;;;;;5073192;28;20027;-61
2022/07/12 02:31:02;;;;;;;0.52;0.32;;;16.00;95.30;;;;;;5074181;28;20020;-61
2022/07/12 02:33:28;;;;;;;0.80;0.50;;;15.90;95.40;;;;;;5073782;28;20484;-61
2022/07/12 02:36:13;;;;;;;0.65;0.40;;;15.90;95.50;;;;;;5073158;28;20036;-61
2022/07/12 02:38:38;;;;;;;1.05;0.50;;;15.90;95.60;;;;;;5058045;28;20024;-61
2022/07/12 02:41:04;;;;;;;0.30;0.30;;;15.80;95.70;;;;;;5072848;28;20070;-61
2022/07/12 02:43:30;;;;;;;0.60;0.30;;;15.80;95.80;;;;;;5071896;28;20142;-61
2022/07/12 02:46:07;;;;;;;0.50;0.40;;;15.70;95.90;;;;;;5072153;28;20035;-61
2022/07/12 02:48:33;;;;;;;0.60;0.40;;;15.70;95.90;;;;;;5071040;28;20695;-61
2022/07/12 02:51:02;;;;;;;0.90;0.50;;;15.70;95.90;;;;;;5053879;28;20031;-61
2022/07/12 02:53:28;;;;;;;0.90;0.50;;;15.70;95.90;;;;;;5086198;28;20032;-61
2022/07/12 02:55:54;;;;;;;0.90;0.60;;;15.70;95.90;;;;;;5073312;28;20056;-61
2022/07/12 02:58:22;;;;;;;0.60;0.40;;;15.70;95.90;;;;;;5069024;28;20029;-61
2022/07/12 03:00:48;;;;;;;1.25;0.45;;;15.70;96.00;;;;;;5057544;28;20032;-61
2022/07/12 03:03:14;;;;;;;0.70;0.40;;;15.60;96.00;;;;;;5073525;28;20033;-61
2022/07/12 03:05:41;;;;;;;0.88;0.50;;;15.60;96.10;;;;;;5072590;28;20091;-61
2022/07/12 03:08:07;;;;;;;1.23;0.50;;;15.60;96.10;;;;;;5065201;28;20020;-61
2022/07/12 03:10:34;;;;;;;0.65;0.40;;;15.60;96.20;;;;;;5063432;28;20027;-61
2022/07/12 03:12:59;;;;;;;0.98;0.60;;;15.50;96.20;;;;;;5064476;28;20494;-61
2022/07/12 03:15:25;;;;;;;0.80;0.80;;;15.50;96.30;;;;;;5071695;28;20484;-61
2022/07/12 03:17:51;;;;;;;1.63;0.70;;;15.50;96.30;;;;;;5073090;28;20028;-61
2022/07/12 03:20:17;;;;;;;1.92;0.60;;;15.50;96.40;;;;;;5072703;28;20056;-61
2022/07/12 03:22:48;;;;;;;2.10;0.50;;;15.50;96.40;;;;;;5073192;28;20384;-61
2022/07/12 03:25:14;;;;;;;1.00;0.50;;;15.40;96.40;;;;;;5053017;28;20021;-61
2022/07/12 03:27:40;;;;;;;0.70;0.40;;;15.40;96.40;;;;;;5053229;28;20040;-61
2022/07/12 03:30:06;;;;;;;0.63;0.45;;;15.40;96.40;;;;;;5068604;28;20028;-61
2022/07/12 03:32:32;;;;;;;1.08;0.57;;;15.40;96.40;;;;;;5066697;28;20087;-61
2022/07/12 03:34:57;;;;;;;2.10;0.50;;;15.30;96.40;;;;;;5067764;28;20032;-61
2022/07/12 03:37:23;;;;;;;0.75;0.50;;;15.30;96.50;;;;;;5067466;28;20028;-61
2022/07/12 03:39:48;;;;;;;0.70;0.50;;;15.20;96.50;;;;;;5071328;28;20035;-61
2022/07/12 03:42:14;;;;;;;0.88;0.70;;;15.30;96.70;;;;;;5067426;28;20027;-61
2022/07/12 03:44:39;;;;;;;0.57;0.47;;;15.20;96.70;;;;;;5067631;28;20107;-61
2022/07/12 03:47:05;;;;;;;0.50;0.50;;;15.20;96.70;;;;;;5062180;28;20028;-61
2022/07/12 03:49:31;;;;;;;0.95;0.60;;;15.20;96.80;;;;;;5067650;28;20040;-61
2022/07/12 03:51:57;;;;;;;1.00;0.63;;;15.20;96.90;;;;;;5062302;28;20020;-61
2022/07/12 03:54:23;;;;;;;1.27;0.75;;;15.20;96.90;;;;;;5066976;28;20021;-61
2022/07/12 03:59:35;;;;;;;1.27;0.70;;;15.10;96.90;;;;;;5071851;28;20411;-61
2022/07/12 04:02:03;;;;;;;1.40;0.63;;;15.10;97.00;;;;;;5071593;28;20024;-61
2022/07/12 04:04:29;;;;;;;0.60;0.50;;;15.10;96.90;;;;;;5069781;28;20527;-61
2022/07/12 04:06:55;;;;;;;1.00;0.60;;;15.10;97.00;;;;;;5071137;28;20032;-60
2022/07/12 04:09:20;;;;;;;0.73;0.65;;;15.10;97.00;;;;;;5059860;28;20032;-60
2022/07/12 04:11:46;;;;;;;1.50;0.57;;;15.10;97.10;;;;;;5054698;28;20366;-61
2022/07/12 04:14:12;;;;;;;0.65;0.40;;;15.10;97.10;;;;;;5056857;28;20031;-61
2022/07/12 04:16:37;;;;;;;0.50;0.35;;;15.10;97.10;;;;;;5054641;28;20033;-61
2022/07/12 04:19:04;;;;;;;0.43;0.30;;;15.00;97.20;;;;;;5058593;28;20676;-61
2022/07/12 04:21:33;;;;;;;1.00;0.50;;;15.00;97.30;;;;;;5065401;28;20054;-61
2022/07/12 04:23:59;;;;;;;0.90;0.65;;;15.00;97.30;;;;;;5068507;28;20020;-61
2022/07/12 04:26:24;;;;;;;0.80;0.50;;;15.00;97.30;;;;;;5070721;28;20020;-61
2022/07/12 04:28:50;;;;;;;1.35;0.88;;;15.10;97.30;;;;;;5068445;28;20040;-61
2022/07/12 04:31:15;;;;;;;1.20;0.77;;;15.10;97.20;;;;;;5070088;28;20021;-61
2022/07/12 04:33:41;;;;;;;1.25;1.00;;;15.10;97.30;;;;;;5051990;28;20086;-61
2022/07/12 04:36:39;;;;;;;;;;;;;;;;;;;;;
2022/07/12 04:39:00;;;;;;;2.00;1.23;;;15.30;97.20;;;;;;5067772;28;20040;-61
2022/07/12 04:41:26;;;;;;;1.10;0.80;;;15.30;97.00;;;;;;5068449;28;20028;-61
2022/07/12 04:43:51;;;;;;;2.40;1.40;;;15.40;96.90;;;;;;5067298;28;20021;-61
2022/07/12 04:46:17;;;;;;;1.10;0.80;;;15.40;96.80;;;;;;5069508;28;20017;-61
2022/07/12 04:48:42;;;;;;;2.00;0.90;;;15.40;96.80;;;;;;5066603;28;20434;-61
2022/07/12 04:51:08;;;;;;;1.70;1.17;;;15.40;96.80;;;;;;5065926;28;20029;-61
2022/07/12 04:53:34;;;;;;;1.33;0.93;;;15.50;96.80;;;;;;5067086;28;20444;-61
2022/07/12 04:55:59;;;;;;;1.15;0.98;;;15.50;96.90;;;;;;5066521;28;20056;-61
2022/07/12 04:58:24;;;;;;;2.00;0.77;;;15.50;96.80;;;;;;5065316;28;20412;-61
2022/07/12 05:00:50;;;;;;;0.93;0.80;;;15.60;96.90;;;;;;5067566;28;20485;-61
2022/07/12 05:03:16;;;;;;;1.25;0.93;;;15.60;97.00;;;;;;5066355;28;20099;-61
2022/07/12 05:05:42;;;;;;;0.60;0.50;;;15.60;97.10;;;;;;5065983;28;20562;-61
2022/07/12 05:08:08;;;;;;;2.05;0.70;;;15.70;97.20;;;;;;5067985;28;20017;-61
2022/07/12 05:10:34;;;;;;;1.02;0.77;;;15.70;97.20;;;;;;5069318;28;20032;-61
2022/07/12 05:13:00;;;;;;;2.05;1.50;;;15.70;97.10;;;;;;5067937;28;20550;-61
2022/07/12 05:15:25;;;;;;;2.10;1.75;;;15.70;97.30;;;;;;5070158;28;20028;-61
2022/07/12 05:17:51;;;;;;;2.47;1.95;;;15.70;97.50;;;;;;5070004;28;20028;-61
2022/07/12 05:20:16;;;;;;;1.63;1.33;;;15.70;97.70;;;;;;5070628;28;20032;-61
2022/07/12 05:22:42;;;;;;;2.33;2.00;;;15.80;97.90;;;;;;5067581;28;20024;-61
2022/07/12 05:25:08;;;;;;;3.05;2.75;;;15.80;98.10;;;;;;5069963;28;20028;-61
2022/07/12 05:27:34;;;;;;;3.50;2.75;;;15.80;98.40;;;;;;5065798;28;20111;-61
2022/07/12 05:30:00;;;;;;;3.00;2.70;;;15.80;98.90;;;;;;5070113;28;20555;-61
2022/07/12 05:32:26;;;;;;;3.25;2.85;;;15.90;98.80;;;;;;5069844;28;20129;-61
2022/07/12 05:34:51;;;;;;;4.15;3.75;;;16.00;99.00;;;;;;5069287;28;20074;-61
2022/07/12 05:37:17;;;;;;;4.80;4.28;;;16.00;99.30;;;;;;5068413;28;20032;-61
2022/07/12 05:39:42;;;;;;;4.68;4.13;;;16.10;99.80;;;;;;5068635;28;20495;-61
2022/07/12 05:42:24;;;;;;;4.63;3.85;;;16.10;99.90;;;;;;5070899;28;20032;-61
2022/07/12 05:44:49;;;;;;;4.50;3.72;;;16.20;99.90;;;;;;5064870;28;20019;-61
2022/07/12 05:47:15;;;;;;;4.18;2.88;;;16.20;99.90;;;;;;5065281;28;20020;-61
2022/07/12 05:49:40;;;;;;;3.80;3.40;;;16.30;99.90;;;;;;5069236;28;20032;-61
2022/07/12 05:54:50;;;;;;;2.97;2.67;;;16.40;99.90;;;;;;5073216;28;20399;-61
2022/07/12 05:57:16;;;;;;;3.55;3.10;;;16.50;99.90;;;;;;5061573;28;20053;-61
2022/07/12 05:59:43;;;;;;;5.32;3.05;;;16.60;99.90;;;;;;5057244;28;20090;-61
2022/07/12 06:02:08;;;;;;;3.55;3.15;;;16.70;99.90;;;;;;5073078;28;20116;-61
2022/07/12 06:04:34;;;;;;;3.90;3.50;;;16.80;99.90;;;;;;5072899;28;20095;-60
2022/07/12 06:06:59;;;;;;;4.57;3.83;;;16.90;99.90;;;;;;5073504;28;20021;-61
2022/07/12 06:09:25;;;;;;;4.13;3.72;;;16.90;99.90;;;;;;5072093;28;20070;-61
2022/07/12 06:11:50;;;;;;;4.35;3.83;;;17.00;99.90;;;;;;5070040;28;20489;-61
2022/07/12 06:14:16;;;;;;;4.18;3.78;;;17.10;99.90;;;;;;5072412;28;20036;-61
2022/07/12 06:16:41;;;;;;;4.30;3.90;;;17.20;99.90;;;;;;5071088;28;20036;-61
2022/07/12 06:19:07;;;;;;;4.55;4.00;;;17.30;99.90;;;;;;5069642;28;20051;-61
2022/07/12 06:21:33;;;;;;;5.10;4.47;;;17.40;99.90;;;;;;5073211;28;20025;-61
2022/07/12 06:23:58;;;;;;;5.60;3.80;;;17.50;99.90;;;;;;5073133;28;20092;-62
2022/07/12 06:26:34;;;;;;;4.18;3.78;;;17.60;99.90;;;;;;5063793;28;20029;-61
2022/07/12 06:29:51;;;;;;;;;;;;;;;;;;;;;
2022/07/12 06:39:36;;;;;;;6.40;5.80;;;18.10;99.90;;;;;;4858125;29;20045;-62
2022/07/12 06:42:05;;;;;;;6.03;5.43;;;18.20;99.90;;;;;;4916617;29;20129;-61
2022/07/12 06:44:31;;;;;;;6.80;6.20;;;18.30;99.90;;;;;;4934572;29;20083;-61
2022/07/12 06:46:58;;;;;;;6.25;5.70;;;18.40;99.90;;;;;;5017488;28;20024;-62
2022/07/12 06:49:24;;;;;;;5.85;5.35;;;18.50;99.90;;;;;;5067225;28;20020;-62
2022/07/12 06:51:50;;;;;;;6.55;5.95;;;18.60;99.90;;;;;;5055850;28;20021;-61
2022/07/12 06:54:15;;;;;;;7.35;6.65;;;18.70;99.90;;;;;;5063111;28;20025;-61
2022/07/12 06:56:41;;;;;;;7.85;7.15;;;18.80;99.90;;;;;;5067239;28;20107;-61
2022/07/12 06:59:10;;;;;;;7.82;7.00;;;18.80;99.90;;;;;;5054350;28;20036;-61
2022/07/12 07:01:37;;;;;;;8.40;7.35;;;18.90;99.90;;;;;;5059910;28;20036;-62
2022/07/12 07:04:03;;;;;;;7.78;6.97;;;19.00;99.90;;;;;;5065170;28;20063;-61
2022/07/12 07:06:28;;;;;;;7.70;7.00;;;19.10;99.90;;;;;;5065004;28;20021;-62
2022/07/12 07:08:54;;;;;;;7.65;6.95;;;19.20;99.90;;;;;;5063904;28;20582;-62
2022/07/12 07:11:53;;;;;;;;;;;;;;;;;;;;;
2022/07/12 07:14:19;;;;;;;8.18;7.47;;;19.40;99.90;;;;;;5055426;28;20369;-61
2022/07/12 07:16:45;;;;;;;8.75;7.85;;;19.60;99.90;;;;;;5055661;28;20112;-61
2022/07/12 07:19:10;;;;;;;7.10;6.45;;;19.70;99.90;;;;;;5062280;28;20465;-61
2022/07/12 07:21:36;;;;;;;10.52;9.45;;;19.80;99.80;;;;;;5073033;28;20099;-62
2022/07/12 07:24:02;;;;;;;8.80;7.97;;;19.90;99.40;;;;;;5060460;28;20032;-61
2022/07/12 07:26:28;;;;;;;10.02;8.23;;;20.10;99.20;;;;;;5062173;28;20024;-62
2022/07/12 07:31:38;;;;;;;8.80;8.00;;;20.30;97.80;;;;;;5054201;28;20032;-61
2022/07/12 07:34:04;;;;;;;7.00;6.38;;;20.40;97.40;;;;;;5053886;28;20032;-62
2022/07/12 07:36:35;;;;;;;5.95;5.45;;;20.50;96.90;;;;;;5065872;28;20032;-61
2022/07/12 07:39:00;;;;;;;7.43;6.60;;;20.60;96.70;;;;;;5083763;28;20392;-62
2022/07/12 07:41:26;;;;;;;6.57;5.82;;;20.70;96.50;;;;;;5066377;28;20025;-62
2022/07/12 07:43:51;;;;;;;7.30;6.60;;;20.80;96.00;;;;;;5054602;28;20024;-62
2022/07/12 07:46:17;;;;;;;4.95;4.45;;;20.90;95.50;;;;;;5055738;28;20032;-62
2022/07/12 07:48:42;;;;;;;6.40;5.38;;;20.90;95.50;;;;;;5073781;28;20116;-61
2022/07/12 07:51:08;;;;;;;6.68;5.95;;;21.00;95.20;;;;;;5056256;28;20492;-62
2022/07/12 07:53:34;;;;;;;7.50;6.70;;;21.10;95.30;;;;;;5054351;28;20028;-62
2022/07/12 07:56:00;;;;;;;8.13;6.65;;;21.20;94.90;;;;;;5055246;28;20063;-61
2022/07/12 07:58:26;;;;;;;6.40;5.80;;;21.20;94.70;;;;;;5059533;28;20071;-63
2022/07/12 08:00:53;;;;;;;7.03;6.40;;;21.30;94.60;;;;;;5059687;28;20407;-62
2022/07/12 08:03:20;;;;;;;8.70;8.00;;;21.40;94.10;;;;;;5067300;28;20017;-62
2022/07/12 08:05:46;;;;;;;7.47;6.70;;;21.50;93.90;;;;;;5063891;28;20027;-62
2022/07/12 08:08:12;;;;;;;8.88;8.05;;;21.60;93.80;;;;;;5070756;28;20099;-61
2022/07/12 08:10:37;;;;;;;8.52;7.53;;;21.70;94.00;;;;;;5072123;28;20503;-61
2022/07/12 08:13:03;;;;;;;7.10;6.43;;;21.90;93.70;;;;;;5066704;28;20028;-62
2022/07/12 08:15:30;;;;;;;8.07;7.28;;;22.00;93.30;;;;;;5064280;28;20020;-61
2022/07/12 08:17:56;;;;;;;7.95;7.15;;;22.10;92.40;;;;;;5053512;28;20025;-62
2022/07/12 08:20:25;;;;;;;5.50;4.97;;;22.20;92.30;;;;;;5051982;28;20029;-62
2022/07/12 08:22:50;;;;;;;4.80;4.35;;;22.30;92.10;;;;;;5059459;28;20077;-62
2022/07/12 08:25:16;;;;;;;4.80;3.85;;;22.30;91.80;;;;;;5057940;28;20028;-62
2022/07/12 08:27:42;;;;;;;6.43;5.85;;;22.50;91.70;;;;;;5059252;28;20483;-62
2022/07/12 08:30:08;;;;;;;7.28;6.68;;;22.60;90.70;;;;;;5060912;28;20020;-62
2022/07/12 08:32:34;;;;;;;7.55;6.85;;;22.70;90.50;;;;;;5074150;28;20048;-63
2022/07/12 08:35:20;;;;;;;5.55;5.05;;;22.70;90.00;;;;;;5066430;28;20032;-61
2022/07/12 08:37:46;;;;;;;4.88;4.43;;;22.80;90.10;;;;;;5063359;28;20047;-62
2022/07/12 08:40:11;;;;;;;5.18;4.68;;;23.00;90.10;;;;;;5067989;28;20025;-62
2022/07/12 08:42:41;;;;;;;6.07;5.57;;;23.00;89.50;;;;;;5070311;28;20020;-62
2022/07/12 08:45:07;;;;;;;7.30;6.70;;;23.10;88.90;;;;;;5070849;28;20015;-62
2022/07/12 08:47:32;;;;;;;4.68;4.28;;;23.20;88.60;;;;;;5073762;28;20028;-61
2022/07/12 08:50:17;;;;;;;8.23;7.40;;;23.20;88.60;;;;;;5069925;28;20036;-62
2022/07/12 08:52:49;;;;;;;5.93;4.38;;;23.30;87.10;;;;;;5066962;28;20016;-62
2022/07/12 08:55:20;;;;;;;7.03;6.43;;;23.40;87.50;;;;;;5082762;28;20025;-62
2022/07/12 08:58:20;;;;;;;;;;;;;;;;;;;;;
2022/07/12 09:00:46;;;;;;;6.10;4.90;;;23.40;86.40;;;;;;5065261;28;20028;-62
2022/07/12 09:03:13;;;;;;;4.80;3.30;;;23.50;86.00;;;;;;5043350;28;20100;-62
2022/07/12 09:05:51;;;;;;;4.13;2.75;;;23.70;85.80;;;;;;5072986;28;20025;-62
2022/07/12 09:08:17;;;;;;;5.55;3.95;;;23.80;85.10;;;;;;5069513;28;20504;-62
2022/07/12 09:10:49;;;;;;;6.22;5.72;;;23.80;84.20;;;;;;5071341;28;20027;-62
2022/07/12 09:13:14;;;;;;;7.55;5.97;;;23.80;81.00;;;;;;5067719;28;20467;-62
2022/07/12 09:15:40;;;;;;;5.13;4.68;;;23.70;80.40;;;;;;5066057;28;20544;-62
2022/07/12 09:18:13;;;;;;;3.97;3.67;;;23.70;81.80;;;;;;5062277;28;20078;-62
2022/07/12 09:20:39;;;;;;;3.50;2.90;;;23.80;81.50;;;;;;5059247;28;20029;-62
2022/07/12 09:23:07;;;;;;;3.65;3.28;;;23.80;81.30;;;;;;5060196;28;20092;-62
2022/07/12 09:25:33;;;;;;;5.93;4.10;;;23.90;80.50;;;;;;5060410;28;20021;-63
2022/07/12 09:28:00;;;;;;;4.28;3.10;;;23.90;80.20;;;;;;5065633;28;20400;-62
2022/07/12 09:30:28;;;;;;;5.13;4.63;;;24.00;80.10;;;;;;5063454;28;20037;-62
2022/07/12 09:38:24;;;;;;;5.13;4.72;;;24.10;77.70;;;;;;5065489;28;20032;-62
2022/07/12 09:40:49;;;;;;;4.63;4.22;;;24.10;76.00;;;;;;5068387;28;20035;-62
2022/07/12 09:43:16;;;;;;;5.38;4.88;;;24.10;76.00;;;;;;5061614;28;20012;-62
2022/07/12 09:45:43;;;;;;;4.93;4.53;;;24.10;76.20;;;;;;5061174;28;20071;-62
2022/07/12 09:48:11;;;;;;;5.35;4.85;;;24.10;75.60;;;;;;5062493;28;20112;-62
2022/07/12 09:50:37;;;;;;;4.65;3.60;;;24.10;75.10;;;;;;5058939;28;20102;-62
2022/07/12 09:53:03;;;;;;;5.18;4.45;;;24.10;74.50;;;;;;5051285;28;20108;-62
2022/07/12 09:55:38;;;;;;;7.47;6.32;;;24.10;75.00;;;;;;5056747;28;20100;-62
2022/07/12 09:58:07;;;;;;;8.77;7.72;;;24.20;76.60;;;;;;5058935;28;20029;-62
2022/07/12 10:00:51;;;;;;;6.57;5.97;;;24.20;76.30;;;;;;5062856;28;20020;-62
2022/07/12 10:03:20;;;;;;;6.85;6.25;;;24.30;75.60;;;;;;5064810;28;20131;-62
2022/07/12 10:05:46;;;;;;;8.38;6.93;;;24.30;76.10;;;;;;5083282;28;20040;-61
2022/07/12 10:08:12;;;;;;;8.25;7.45;;;24.30;76.10;;;;;;5071659;28;20021;-62
2022/07/12 10:10:39;;;;;;;6.55;5.85;;;24.40;74.60;;;;;;5059282;28;20461;-62
2022/07/12 10:13:04;;;;;;;3.95;3.42;;;24.40;75.10;;;;;;5058141;28;20370;-62
2022/07/12 10:15:31;;;;;;;7.00;5.32;;;24.50;75.70;;;;;;5065739;28;20103;-62
2022/07/12 10:17:58;;;;;;;6.82;5.63;;;24.60;75.30;;;;;;5058750;28;20029;-62
2022/07/12 10:20:29;;;;;;;7.68;6.97;;;24.70;74.90;;;;;;5070529;28;20137;-62
2022/07/12 10:23:13;;;;;;;6.90;6.30;;;24.80;74.00;;;;;;5071648;28;20020;-61
2022/07/12 10:25:39;;;;;;;5.60;4.88;;;24.90;73.70;;;;;;5060938;28;20035;-62
2022/07/12 10:28:22;;;;;;;6.20;5.60;;;25.00;73.60;;;;;;5070983;28;20032;-62
2022/07/12 10:30:49;;;;;;;6.90;5.53;;;25.10;72.40;;;;;;5062755;28;20037;-62
2022/07/12 10:33:20;;;;;;;4.85;4.45;;;25.10;72.50;;;;;;5074220;28;20029;-62
2022/07/12 10:36:06;;;;;;;4.53;4.13;;;25.20;72.00;;;;;;5063706;28;20020;-62
2022/07/12 10:38:32;;;;;;;4.97;4.57;;;25.40;71.80;;;;;;5060573;28;20366;-62
2022/07/12 10:41:15;;;;;;;4.38;3.40;;;25.40;70.60;;;;;;5056756;28;20021;-62
2022/07/12 10:46:25;;;;;;;5.10;4.20;;;25.50;70.20;;;;;;5061341;28;20405;-62
2022/07/12 10:48:51;;;;;;;4.70;4.20;;;25.50;69.50;;;;;;5063816;28;20384;-63
2022/07/12 10:51:21;;;;;;;3.72;3.42;;;25.60;69.30;;;;;;5066403;28;20025;-63
2022/07/12 10:53:50;;;;;;;3.13;2.85;;;25.70;68.30;;;;;;5063525;28;20036;-62
2022/07/12 10:56:20;;;;;;;6.03;3.40;;;25.90;67.90;;;;;;5071464;28;20048;-62
2022/07/12 10:58:48;;;;;;;4.53;4.13;;;26.10;67.70;;;;;;5053664;28;20024;-62
2022/07/12 11:01:18;;;;;;;5.82;5.22;;;26.20;67.10;;;;;;5069051;28;20019;-64
2022/07/12 11:03:49;;;;;;;4.93;4.53;;;26.20;66.90;;;;;;5069295;28;20033;-62
2022/07/12 11:06:17;;;;;;;3.33;3.03;;;26.30;67.00;;;;;;5070945;28;20081;-62
2022/07/12 11:09:04;;;;;;;6.05;4.10;;;26.40;67.50;;;;;;5063962;28;20053;-62
2022/07/12 11:11:32;;;;;;;5.22;4.22;;;26.60;67.30;;;;;;5053525;28;20029;-62
2022/07/12 11:13:59;;;;;;;6.60;3.03;;;26.80;66.80;;;;;;5053563;28;20029;-62
2022/07/12 11:16:49;;;;;;;2.83;2.60;;;26.90;66.40;;;;;;5072251;28;20498;-62
2022/07/12 11:19:28;;;;;;;5.85;5.10;;;27.20;66.00;;;;;;5068284;28;20056;-62
2022/07/12 11:21:58;;;;;;;3.92;3.63;;;27.30;65.00;;;;;;5069129;28;20411;-62
2022/07/12 11:24:36;;;;;;;2.58;2.22;;;27.10;62.60;;;;;;5070206;28;20025;-62
2022/07/12 11:27:12;;;;;;;1.80;1.40;;;27.10;62.90;;;;;;5070935;28;20552;-62
2022/07/12 11:29:38;;;;;;;1.75;1.60;;;27.30;62.80;;;;;;5069087;28;20255;-62
2022/07/12 11:32:06;;;;;;;1.45;1.08;;;27.50;62.40;;;;;;5064706;28;20430;-62
2022/07/12 11:34:34;;;;;;;3.40;2.95;;;27.90;62.20;;;;;;5059626;28;20060;-63
2022/07/12 11:37:01;;;;;;;2.13;1.45;;;27.90;59.20;;;;;;5056431;28;20029;-62
2022/07/12 11:39:42;;;;;;;3.72;3.42;;;27.90;59.90;;;;;;5061906;28;20056;-62
2022/07/12 11:42:10;;;;;;;4.45;3.65;;;28.00;59.90;;;;;;5065705;28;20033;-62
2022/07/12 11:44:50;;;;;;;3.25;2.50;;;28.10;60.10;;;;;;5056593;28;20017;-62
2022/07/12 11:47:17;;;;;;;3.22;2.75;;;28.20;60.20;;;;;;5054104;28;20021;-62
2022/07/12 11:49:47;;;;;;;2.88;1.80;;;28.40;60.30;;;;;;5052467;28;20037;-63
2022/07/12 11:52:14;;;;;;;4.55;3.15;;;28.60;60.20;;;;;;5057151;28;20024;-62
2022/07/12 11:54:40;;;;;;;2.40;2.20;;;28.70;59.50;;;;;;5063570;28;20021;-62
2022/07/12 11:57:10;;;;;;;3.30;1.48;;;28.90;59.70;;;;;;5063960;28;20504;-62
2022/07/12 11:59:35;;;;;;;3.83;3.47;;;29.20;59.50;;;;;;5062880;28;20028;-66
2022/07/12 12:02:05;;;;;;;3.25;2.95;;;29.50;57.80;;;;;;5061131;28;20020;-63
2022/07/12 12:04:31;;;;;;;3.10;2.47;;;29.20;56.50;;;;;;5061369;28;20017;-63
2022/07/12 12:06:57;;;;;;;4.15;2.80;;;29.00;57.40;;;;;;5070959;28;20035;-62
2022/07/12 12:09:22;;;;;;;3.63;3.33;;;29.20;57.50;;;;;;5071980;28;20099;-63
2022/07/12 12:11:48;;;;;;;3.10;1.88;;;29.20;57.40;;;;;;5072121;28;20107;-62
2022/07/12 12:14:13;;;;;;;5.88;3.92;;;29.30;57.90;;;;;;5071940;28;20029;-62
2022/07/12 12:16:39;;;;;;;3.88;2.50;;;29.40;57.20;;;;;;5072263;28;20025;-63
2022/07/12 12:19:11;;;;;;;2.53;2.28;;;29.40;57.40;;;;;;5069816;28;20089;-63
2022/07/12 12:21:37;;;;;;;4.13;2.55;;;29.60;57.00;;;;;;5061371;28;20108;-63
2022/07/12 12:24:10;;;;;;;2.95;2.13;;;29.60;56.70;;;;;;5065609;28;20088;-63
2022/07/12 12:26:35;;;;;;;1.70;1.60;;;29.60;56.30;;;;;;5052175;28;20040;-63
2022/07/12 12:29:02;;;;;;;3.45;2.03;;;29.70;56.40;;;;;;5068717;28;20028;-63
2022/07/12 12:31:28;;;;;;;1.60;1.27;;;30.00;56.20;;;;;;5071617;28;20506;-63
2022/07/12 12:33:58;;;;;;;1.48;1.33;;;30.20;56.30;;;;;;5071044;28;20104;-63
2022/07/12 12:36:35;;;;;;;4.28;1.30;;;30.50;56.20;;;;;;5071937;28;20030;-63
2022/07/12 12:39:01;;;;;;;1.98;1.17;;;30.80;56.00;;;;;;5071744;28;20055;-63
2022/07/12 12:41:29;;;;;;;2.28;2.05;;;31.10;55.50;;;;;;5064809;28;20059;-63
2022/07/12 12:44:05;;;;;;;2.42;1.95;;;31.10;54.30;;;;;;5074592;28;20071;-63
2022/07/12 12:46:43;;;;;;;1.33;1.00;;;30.80;53.40;;;;;;5057452;28;20025;-63
2022/07/12 12:49:09;;;;;;;1.88;0.90;;;30.80;54.10;;;;;;5055913;28;20028;-63
2022/07/12 12:51:58;;;;;;;1.40;1.10;;;31.00;54.90;;;;;;5057405;28;20116;-63
2022/07/12 12:54:38;;;;;;;2.67;1.13;;;31.40;54.30;;;;;;5055959;28;20021;-63
2022/07/12 12:57:04;;;;;;;0.85;0.80;;;31.60;53.90;;;;;;5054443;28;20183;-63
2022/07/12 12:59:30;;;;;;;1.70;1.17;;;31.90;53.70;;;;;;5059221;28;20033;-63
2022/07/12 13:01:56;;;;;;;1.33;1.23;;;32.10;53.60;;;;;;5069258;28;20040;-63
2022/07/12 13:04:21;;;;;;;1.58;0.95;;;32.30;53.20;;;;;;5057415;28;20071;-68
2022/07/12 13:06:47;;;;;;;1.50;0.90;;;32.50;52.80;;;;;;5061832;28;20419;-63
2022/07/12 13:09:12;;;;;;;1.25;0.88;;;32.70;52.70;;;;;;5059858;28;20033;-63
2022/07/12 13:11:38;;;;;;;3.25;1.27;;;33.00;52.60;;;;;;5058091;28;20028;-63
2022/07/12 13:14:04;;;;;;;3.00;1.20;;;33.10;52.30;;;;;;5063233;28;20029;-63
2022/07/12 13:16:30;;;;;;;1.52;1.42;;;33.30;52.30;;;;;;5068146;28;20078;-63
2022/07/12 13:18:55;;;;;;;1.35;1.08;;;33.30;51.60;;;;;;5067129;28;20504;-63